sensor_id;sensor_type;location;lat;lon;timestamp;pressure;altitude;pressure_sealevel;temperature;humidity
30724;BME280;17473;52.286;20.930;2023-12-29T00:01:04;99948.56;;;5.43;97.29
30724;BME280;17473;52.286;20.930;2023-12-29T00:03:31;99939.88;;;5.44;97.11
30724;BME280;17473;52.286;20.930;2023-12-29T00:06:01;99953.47;;;5.35;97.86
30724;BME280;17473;52.286;20.930;2023-12-29T00:08:29;99940.28;;;5.33;98.21
30724;BME280;17473;52.286;20.930;2023-12-29T00:10:56;99941.25;;;5.36;98.30
30724;BME280;17473;52.286;20.930;2023-12-29T00:13:23;99936.09;;;5.37;97.67
30724;BME280;17473;52.286;20.930;2023-12-29T00:15:55;99947.56;;;5.59;98.67
30724;BME280;17473;52.286;20.930;2023-12-29T00:18:23;99935.47;;;5.43;98.22
30724;BME280;17473;52.286;20.930;2023-12-29T00:20:51;99940.66;;;5.41;98.21
30724;BME280;17473;52.286;20.930;2023-12-29T00:23:33;99942.22;;;5.38;98.17
30724;BME280;17473;52.286;20.930;2023-12-29T00:26:00;99936.16;;;5.39;98.20
30724;BME280;17473;52.286;20.930;2023-12-29T00:28:27;99938.72;;;5.37;98.75
30724;BME280;17473;52.286;20.930;2023-12-29T00:30:55;99930.34;;;5.26;98.98
30724;BME280;17473;52.286;20.930;2023-12-29T00:33:29;99932.03;;;5.44;98.42
30724;BME280;17473;52.286;20.930;2023-12-29T00:35:57;99930.16;;;5.41;98.16
30724;BME280;17473;52.286;20.930;2023-12-29T00:38:26;99921.88;;;5.32;98.75
30724;BME280;17473;52.286;20.930;2023-12-29T00:40:54;99930.34;;;5.44;98.31
30724;BME280;17473;52.286;20.930;2023-12-29T00:43:21;99928.47;;;5.42;98.51
30724;BME280;17473;52.286;20.930;2023-12-29T00:45:50;99925.91;;;5.43;98.22
30724;BME280;17473;52.286;20.930;2023-12-29T00:48:17;99922.31;;;5.41;98.61
30724;BME280;17473;52.286;20.930;2023-12-29T00:50:45;99926.13;;;5.48;98.25
30724;BME280;17473;52.286;20.930;2023-12-29T00:53:12;99931.97;;;5.42;98.61
30724;BME280;17473;52.286;20.930;2023-12-29T00:55:40;99929.06;;;5.36;98.64
30724;BME280;17473;52.286;20.930;2023-12-29T00:58:07;99927.28;;;5.35;98.62
30724;BME280;17473;52.286;20.930;2023-12-29T01:00:35;99926.94;;;5.47;97.98
30724;BME280;17473;52.286;20.930;2023-12-29T01:03:02;99923.50;;;5.48;97.88
30724;BME280;17473;52.286;20.930;2023-12-29T01:05:29;99931.53;;;5.51;97.36
30724;BME280;17473;52.286;20.930;2023-12-29T01:07:57;99931.31;;;5.46;97.53
30724;BME280;17473;52.286;20.930;2023-12-29T01:10:24;99923.97;;;5.39;97.23
30724;BME280;17473;52.286;20.930;2023-12-29T01:12:51;99924.19;;;5.44;97.10
30724;BME280;17473;52.286;20.930;2023-12-29T01:15:19;99914.47;;;5.41;96.96
30724;BME280;17473;52.286;20.930;2023-12-29T01:17:46;99918.06;;;5.43;97.06
30724;BME280;17473;52.286;20.930;2023-12-29T01:20:13;99905.06;;;5.27;96.77
30724;BME280;17473;52.286;20.930;2023-12-29T01:22:41;99914.75;;;5.47;96.02
30724;BME280;17473;52.286;20.930;2023-12-29T01:25:08;99914.44;;;5.59;95.04
30724;BME280;17473;52.286;20.930;2023-12-29T01:27:35;99906.38;;;5.55;94.88
30724;BME280;17473;52.286;20.930;2023-12-29T01:30:03;99903.31;;;5.45;94.50
30724;BME280;17473;52.286;20.930;2023-12-29T01:32:30;99895.31;;;5.42;95.18
30724;BME280;17473;52.286;20.930;2023-12-29T01:34:58;99897.47;;;5.51;94.74
30724;BME280;17473;52.286;20.930;2023-12-29T01:37:25;99901.75;;;5.49;94.37
30724;BME280;17473;52.286;20.930;2023-12-29T01:39:52;99891.53;;;5.55;93.96
30724;BME280;17473;52.286;20.930;2023-12-29T01:42:19;99895.47;;;5.45;94.43
30724;BME280;17473;52.286;20.930;2023-12-29T01:44:48;99888.97;;;5.37;94.79
30724;BME280;17473;52.286;20.930;2023-12-29T01:47:22;99884.25;;;5.30;94.77
30724;BME280;17473;52.286;20.930;2023-12-29T01:49:50;99883.44;;;5.31;95.14
30724;BME280;17473;52.286;20.930;2023-12-29T01:52:18;99881.78;;;5.33;94.80
30724;BME280;17473;52.286;20.930;2023-12-29T01:54:49;99865.31;;;5.36;94.51
30724;BME280;17473;52.286;20.930;2023-12-29T01:57:17;99865.91;;;5.30;95.08
30724;BME280;17473;52.286;20.930;2023-12-29T01:59:45;99864.56;;;5.38;94.63
30724;BME280;17473;52.286;20.930;2023-12-29T02:02:14;99851.13;;;5.30;94.76
30724;BME280;17473;52.286;20.930;2023-12-29T02:04:42;99848.63;;;5.33;94.70
30724;BME280;17473;52.286;20.930;2023-12-29T02:07:10;99846.22;;;5.38;94.98
30724;BME280;17473;52.286;20.930;2023-12-29T02:09:38;99839.28;;;5.39;95.00
30724;BME280;17473;52.286;20.930;2023-12-29T02:12:06;99845.19;;;5.35;95.15
30724;BME280;17473;52.286;20.930;2023-12-29T02:14:33;99845.88;;;5.30;95.48
30724;BME280;17473;52.286;20.930;2023-12-29T02:19:52;99838.38;;;5.38;95.04
30724;BME280;17473;52.286;20.930;2023-12-29T02:22:19;99837.13;;;5.30;95.44
30724;BME280;17473;52.286;20.930;2023-12-29T02:24:51;99835.53;;;5.33;95.50
30724;BME280;17473;52.286;20.930;2023-12-29T02:30:28;99840.16;;;5.39;95.30
30724;BME280;17473;52.286;20.930;2023-12-29T02:33:01;99822.34;;;5.30;96.16
30724;BME280;17473;52.286;20.930;2023-12-29T02:35:35;99822.19;;;5.27;96.29
30724;BME280;17473;52.286;20.930;2023-12-29T02:38:05;99827.56;;;5.30;96.51
30724;BME280;17473;52.286;20.930;2023-12-29T02:40:32;99816.53;;;5.38;96.28
30724;BME280;17473;52.286;20.930;2023-12-29T02:43:00;99807.03;;;5.20;96.79
30724;BME280;17473;52.286;20.930;2023-12-29T02:45:27;99815.25;;;5.28;96.63
30724;BME280;17473;52.286;20.930;2023-12-29T02:47:54;99811.66;;;5.26;96.86
30724;BME280;17473;52.286;20.930;2023-12-29T02:50:21;99812.63;;;5.28;96.80
30724;BME280;17473;52.286;20.930;2023-12-29T02:52:48;99814.25;;;5.26;96.93
30724;BME280;17473;52.286;20.930;2023-12-29T02:55:16;99808.66;;;5.18;97.41
30724;BME280;17473;52.286;20.930;2023-12-29T02:57:44;99812.19;;;5.19;97.14
30724;BME280;17473;52.286;20.930;2023-12-29T03:00:12;99806.81;;;5.15;97.66
30724;BME280;17473;52.286;20.930;2023-12-29T03:02:39;99807.38;;;5.28;97.07
30724;BME280;17473;52.286;20.930;2023-12-29T03:05:06;99816.19;;;5.30;96.82
30724;BME280;17473;52.286;20.930;2023-12-29T03:07:35;99816.72;;;5.23;97.00
30724;BME280;17473;52.286;20.930;2023-12-29T03:10:02;99815.09;;;5.25;97.62
30724;BME280;17473;52.286;20.930;2023-12-29T03:12:30;99812.91;;;5.16;97.46
30724;BME280;17473;52.286;20.930;2023-12-29T03:14:57;99806.59;;;5.11;98.31
30724;BME280;17473;52.286;20.930;2023-12-29T03:17:25;99801.91;;;5.04;98.69
30724;BME280;17473;52.286;20.930;2023-12-29T03:19:53;99799.72;;;5.13;98.38
30724;BME280;17473;52.286;20.930;2023-12-29T03:22:20;99807.91;;;5.01;98.70
30724;BME280;17473;52.286;20.930;2023-12-29T03:24:48;99801.09;;;5.05;99.11
30724;BME280;17473;52.286;20.930;2023-12-29T03:27:16;99800.31;;;5.07;98.67
30724;BME280;17473;52.286;20.930;2023-12-29T03:29:43;99793.44;;;5.09;99.20
30724;BME280;17473;52.286;20.930;2023-12-29T03:32:11;99799.22;;;5.22;98.62
30724;BME280;17473;52.286;20.930;2023-12-29T03:34:38;99794.53;;;5.14;98.76
30724;BME280;17473;52.286;20.930;2023-12-29T03:37:05;99788.47;;;5.15;99.12
30724;BME280;17473;52.286;20.930;2023-12-29T03:39:32;99788.75;;;5.22;98.75
30724;BME280;17473;52.286;20.930;2023-12-29T03:42:04;99800.13;;;5.22;98.48
30724;BME280;17473;52.286;20.930;2023-12-29T03:44:31;99795.91;;;5.06;99.21
30724;BME280;17473;52.286;20.930;2023-12-29T03:46:58;99793.28;;;5.06;99.46
30724;BME280;17473;52.286;20.930;2023-12-29T03:49:26;99801.41;;;5.12;99.39
30724;BME280;17473;52.286;20.930;2023-12-29T03:51:53;99795.34;;;5.13;98.95
30724;BME280;17473;52.286;20.930;2023-12-29T03:54:20;99786.81;;;4.98;100.00
30724;BME280;17473;52.286;20.930;2023-12-29T03:56:48;99781.03;;;5.05;100.00
30724;BME280;17473;52.286;20.930;2023-12-29T03:59:15;99768.00;;;4.87;99.83
30724;BME280;17473;52.286;20.930;2023-12-29T04:01:42;99779.94;;;5.00;100.00
30724;BME280;17473;52.286;20.930;2023-12-29T04:04:10;99781.50;;;4.96;100.00
30724;BME280;17473;52.286;20.930;2023-12-29T04:06:37;99785.44;;;5.06;99.59
30724;BME280;17473;52.286;20.930;2023-12-29T04:09:04;99772.31;;;4.86;100.00
30724;BME280;17473;52.286;20.930;2023-12-29T04:11:32;99772.25;;;4.85;100.00
30724;BME280;17473;52.286;20.930;2023-12-29T04:13:59;99772.63;;;4.75;100.00
30724;BME280;17473;52.286;20.930;2023-12-29T04:16:26;99774.72;;;4.82;100.00
30724;BME280;17473;52.286;20.930;2023-12-29T04:18:53;99776.94;;;4.92;100.00
30724;BME280;17473;52.286;20.930;2023-12-29T04:21:20;99770.47;;;4.84;100.00
30724;BME280;17473;52.286;20.930;2023-12-29T04:23:47;99769.41;;;4.80;100.00
30724;BME280;17473;52.286;20.930;2023-12-29T04:26:14;99770.09;;;4.76;100.00
30724;BME280;17473;52.286;20.930;2023-12-29T04:28:42;99756.94;;;4.75;100.00
30724;BME280;17473;52.286;20.930;2023-12-29T04:31:09;99746.41;;;4.73;100.00
30724;BME280;17473;52.286;20.930;2023-12-29T04:33:37;99749.91;;;4.74;100.00
30724;BME280;17473;52.286;20.930;2023-12-29T04:36:04;99741.41;;;4.78;100.00
30724;BME280;17473;52.286;20.930;2023-12-29T04:38:32;99737.44;;;4.68;100.00
30724;BME280;17473;52.286;20.930;2023-12-29T04:40:59;99746.22;;;4.68;100.00
30724;BME280;17473;52.286;20.930;2023-12-29T04:43:26;99748.59;;;4.64;100.00
30724;BME280;17473;52.286;20.930;2023-12-29T04:45:53;99744.34;;;4.66;100.00
30724;BME280;17473;52.286;20.930;2023-12-29T04:48:21;99749.78;;;4.70;100.00
30724;BME280;17473;52.286;20.930;2023-12-29T04:50:48;99751.06;;;4.61;100.00
30724;BME280;17473;52.286;20.930;2023-12-29T04:53:16;99742.25;;;4.59;100.00
30724;BME280;17473;52.286;20.930;2023-12-29T04:55:43;99753.28;;;4.71;100.00
30724;BME280;17473;52.286;20.930;2023-12-29T04:58:10;99753.97;;;4.67;100.00
30724;BME280;17473;52.286;20.930;2023-12-29T05:00:37;99759.06;;;4.64;100.00
30724;BME280;17473;52.286;20.930;2023-12-29T05:03:05;99745.06;;;4.63;100.00
30724;BME280;17473;52.286;20.930;2023-12-29T05:05:32;99745.84;;;4.61;100.00
30724;BME280;17473;52.286;20.930;2023-12-29T05:08:00;99745.16;;;4.65;100.00
30724;BME280;17473;52.286;20.930;2023-12-29T05:10:27;99745.88;;;4.62;100.00
30724;BME280;17473;52.286;20.930;2023-12-29T05:12:54;99742.41;;;4.62;100.00
30724;BME280;17473;52.286;20.930;2023-12-29T05:15:21;99742.47;;;4.63;100.00
30724;BME280;17473;52.286;20.930;2023-12-29T05:17:48;99740.97;;;4.68;100.00
30724;BME280;17473;52.286;20.930;2023-12-29T05:20:16;99730.78;;;4.75;100.00
30724;BME280;17473;52.286;20.930;2023-12-29T05:22:43;99736.84;;;4.74;100.00
30724;BME280;17473;52.286;20.930;2023-12-29T05:25:10;99731.97;;;4.81;100.00
30724;BME280;17473;52.286;20.930;2023-12-29T05:27:37;99739.13;;;4.85;100.00
30724;BME280;17473;52.286;20.930;2023-12-29T05:30:05;99741.69;;;4.84;100.00
30724;BME280;17473;52.286;20.930;2023-12-29T05:32:33;99732.19;;;4.86;100.00
30724;BME280;17473;52.286;20.930;2023-12-29T05:35:00;99725.53;;;4.93;100.00
30724;BME280;17473;52.286;20.930;2023-12-29T05:37:27;99735.72;;;5.06;100.00
30724;BME280;17473;52.286;20.930;2023-12-29T05:39:55;99728.75;;;5.07;100.00
30724;BME280;17473;52.286;20.930;2023-12-29T05:42:22;99733.72;;;5.20;100.00
30724;BME280;17473;52.286;20.930;2023-12-29T05:44:49;99731.94;;;5.19;100.00
30724;BME280;17473;52.286;20.930;2023-12-29T05:47:18;99740.19;;;5.28;100.00
30724;BME280;17473;52.286;20.930;2023-12-29T05:49:45;99744.97;;;5.37;100.00
30724;BME280;17473;52.286;20.930;2023-12-29T05:52:12;99735.22;;;5.35;100.00
30724;BME280;17473;52.286;20.930;2023-12-29T05:54:40;99735.44;;;5.39;100.00
30724;BME280;17473;52.286;20.930;2023-12-29T05:57:07;99732.06;;;5.42;100.00
30724;BME280;17473;52.286;20.930;2023-12-29T05:59:34;99718.78;;;5.37;100.00
30724;BME280;17473;52.286;20.930;2023-12-29T06:02:01;99719.19;;;5.46;100.00
30724;BME280;17473;52.286;20.930;2023-12-29T06:04:28;99725.31;;;5.47;100.00
30724;BME280;17473;52.286;20.930;2023-12-29T06:06:55;99723.91;;;5.55;100.00
30724;BME280;17473;52.286;20.930;2023-12-29T06:09:23;99722.06;;;5.53;100.00
30724;BME280;17473;52.286;20.930;2023-12-29T06:11:50;99717.09;;;5.59;100.00
30724;BME280;17473;52.286;20.930;2023-12-29T06:14:17;99709.63;;;5.68;100.00
30724;BME280;17473;52.286;20.930;2023-12-29T06:16:44;99709.75;;;5.71;100.00
30724;BME280;17473;52.286;20.930;2023-12-29T06:19:12;99709.56;;;5.67;100.00
30724;BME280;17473;52.286;20.930;2023-12-29T06:21:43;99703.13;;;5.79;100.00
30724;BME280;17473;52.286;20.930;2023-12-29T06:24:11;99686.75;;;5.85;100.00
30724;BME280;17473;52.286;20.930;2023-12-29T06:26:38;99698.72;;;5.78;100.00
30724;BME280;17473;52.286;20.930;2023-12-29T06:29:10;99701.91;;;5.92;99.58
30724;BME280;17473;52.286;20.930;2023-12-29T06:31:41;99702.03;;;5.95;99.30
30724;BME280;17473;52.286;20.930;2023-12-29T06:34:09;99704.94;;;6.02;98.68
30724;BME280;17473;52.286;20.930;2023-12-29T06:36:37;99703.69;;;5.93;98.98
30724;BME280;17473;52.286;20.930;2023-12-29T06:39:04;99690.66;;;5.95;98.50
30724;BME280;17473;52.286;20.930;2023-12-29T06:41:32;99684.59;;;5.96;98.35
30724;BME280;17473;52.286;20.930;2023-12-29T06:43:59;99696.16;;;6.01;97.60
30724;BME280;17473;52.286;20.930;2023-12-29T06:46:26;99693.72;;;6.06;97.22
30724;BME280;17473;52.286;20.930;2023-12-29T06:48:54;99695.84;;;5.93;97.52
30724;BME280;17473;52.286;20.930;2023-12-29T06:51:21;99704.38;;;5.89;97.24
30724;BME280;17473;52.286;20.930;2023-12-29T06:53:50;99702.28;;;6.00;97.14
30724;BME280;17473;52.286;20.930;2023-12-29T06:56:18;99702.03;;;5.95;97.06
30724;BME280;17473;52.286;20.930;2023-12-29T06:58:45;99705.09;;;6.05;96.65
30724;BME280;17473;52.286;20.930;2023-12-29T07:01:13;99703.81;;;5.96;96.80
30724;BME280;17473;52.286;20.930;2023-12-29T07:03:40;99697.00;;;6.21;95.75
30724;BME280;17473;52.286;20.930;2023-12-29T07:06:09;99692.41;;;6.16;95.37
30724;BME280;17473;52.286;20.930;2023-12-29T07:08:37;99701.53;;;6.04;95.95
30724;BME280;17473;52.286;20.930;2023-12-29T07:11:04;99687.66;;;6.07;95.94
30724;BME280;17473;52.286;20.930;2023-12-29T07:13:31;99692.41;;;6.16;95.42
30724;BME280;17473;52.286;20.930;2023-12-29T07:15:58;99691.63;;;6.18;95.15
30724;BME280;17473;52.286;20.930;2023-12-29T07:18:25;99686.19;;;6.14;95.15
30724;BME280;17473;52.286;20.930;2023-12-29T07:20:53;99678.09;;;6.07;95.93
30724;BME280;17473;52.286;20.930;2023-12-29T07:23:20;99663.16;;;6.05;96.14
30724;BME280;17473;52.286;20.930;2023-12-29T07:25:48;99663.47;;;6.14;95.58
30724;BME280;17473;52.286;20.930;2023-12-29T07:28:15;99668.84;;;6.17;95.20
30724;BME280;17473;52.286;20.930;2023-12-29T07:30:42;99680.31;;;6.19;94.92
30724;BME280;17473;52.286;20.930;2023-12-29T07:33:10;99675.19;;;6.22;95.22
30724;BME280;17473;52.286;20.930;2023-12-29T07:35:38;99671.03;;;6.28;95.06
30724;BME280;17473;52.286;20.930;2023-12-29T07:38:05;99672.03;;;6.31;94.98
30724;BME280;17473;52.286;20.930;2023-12-29T07:40:32;99676.50;;;6.34;94.72
30724;BME280;17473;52.286;20.930;2023-12-29T07:42:59;99661.72;;;6.36;94.68
30724;BME280;17473;52.286;20.930;2023-12-29T07:45:26;99661.78;;;6.37;94.83
30724;BME280;17473;52.286;20.930;2023-12-29T07:47:54;99668.81;;;6.38;94.65
30724;BME280;17473;52.286;20.930;2023-12-29T07:50:22;99666.81;;;6.54;94.27
30724;BME280;17473;52.286;20.930;2023-12-29T07:52:49;99655.75;;;6.63;93.92
30724;BME280;17473;52.286;20.930;2023-12-29T07:55:16;99659.81;;;6.54;93.97
30724;BME280;17473;52.286;20.930;2023-12-29T07:57:43;99665.59;;;6.68;93.45
30724;BME280;17473;52.286;20.930;2023-12-29T08:00:11;99664.84;;;6.72;93.58
30724;BME280;17473;52.286;20.930;2023-12-29T08:02:39;99652.97;;;6.58;94.06
30724;BME280;17473;52.286;20.930;2023-12-29T08:05:07;99663.75;;;6.66;93.73
30724;BME280;17473;52.286;20.930;2023-12-29T08:07:37;99655.16;;;6.70;93.72
30724;BME280;17473;52.286;20.930;2023-12-29T08:10:06;99661.47;;;6.75;93.14
30724;BME280;17473;52.286;20.930;2023-12-29T08:12:34;99646.63;;;6.76;93.21
30724;BME280;17473;52.286;20.930;2023-12-29T08:15:03;99657.84;;;6.96;92.19
30724;BME280;17473;52.286;20.930;2023-12-29T08:17:30;99651.53;;;6.91;91.97
30724;BME280;17473;52.286;20.930;2023-12-29T08:19:58;99649.94;;;6.94;91.83
30724;BME280;17473;52.286;20.930;2023-12-29T08:22:29;99653.84;;;7.05;91.68
30724;BME280;17473;52.286;20.930;2023-12-29T08:24:57;99651.84;;;6.98;91.55
30724;BME280;17473;52.286;20.930;2023-12-29T08:27:25;99644.31;;;7.08;91.13
30724;BME280;17473;52.286;20.930;2023-12-29T08:29:52;99636.31;;;7.04;90.75
30724;BME280;17473;52.286;20.930;2023-12-29T08:32:21;99647.13;;;7.14;90.70
30724;BME280;17473;52.286;20.930;2023-12-29T08:34:48;99638.50;;;7.18;90.08
30724;BME280;17473;52.286;20.930;2023-12-29T08:37:16;99646.66;;;7.26;89.52
30724;BME280;17473;52.286;20.930;2023-12-29T08:39:47;99642.69;;;7.37;88.94
30724;BME280;17473;52.286;20.930;2023-12-29T08:42:16;99653.81;;;7.81;86.81
30724;BME280;17473;52.286;20.930;2023-12-29T08:44:43;99652.69;;;8.28;84.03
30724;BME280;17473;52.286;20.930;2023-12-29T08:47:10;99649.03;;;8.50;82.38
30724;BME280;17473;52.286;20.930;2023-12-29T08:49:38;99653.31;;;8.77;81.20
30724;BME280;17473;52.286;20.930;2023-12-29T08:52:05;99651.06;;;9.21;78.52
30724;BME280;17473;52.286;20.930;2023-12-29T08:54:33;99648.94;;;9.40;77.69
30724;BME280;17473;52.286;20.930;2023-12-29T08:57:00;99651.47;;;9.70;76.03
30724;BME280;17473;52.286;20.930;2023-12-29T08:59:27;99655.53;;;9.58;75.74
30724;BME280;17473;52.286;20.930;2023-12-29T09:01:55;99650.63;;;9.71;75.20
30724;BME280;17473;52.286;20.930;2023-12-29T09:04:22;99645.41;;;9.75;74.68
30724;BME280;17473;52.286;20.930;2023-12-29T09:06:50;99633.72;;;9.63;75.88
30724;BME280;17473;52.286;20.930;2023-12-29T09:09:17;99644.31;;;10.01;73.33
30724;BME280;17473;52.286;20.930;2023-12-29T09:11:45;99659.31;;;10.04;73.12
30724;BME280;17473;52.286;20.930;2023-12-29T09:14:14;99657.00;;;9.81;74.01
30724;BME280;17473;52.286;20.930;2023-12-29T09:16:41;99647.16;;;10.09;72.72
30724;BME280;17473;52.286;20.930;2023-12-29T09:19:10;99641.28;;;10.59;70.85
30724;BME280;17473;52.286;20.930;2023-12-29T09:21:40;99633.13;;;10.90;69.03
30724;BME280;17473;52.286;20.930;2023-12-29T09:24:08;99639.41;;;11.41;67.85
30724;BME280;17473;52.286;20.930;2023-12-29T09:26:35;99624.97;;;11.23;66.89
30724;BME280;17473;52.286;20.930;2023-12-29T09:29:02;99633.50;;;11.56;66.01
30724;BME280;17473;52.286;20.930;2023-12-29T09:31:29;99633.34;;;11.47;66.43
30724;BME280;17473;52.286;20.930;2023-12-29T09:33:57;99634.63;;;11.69;65.55
30724;BME280;17473;52.286;20.930;2023-12-29T09:36:24;99638.81;;;11.59;65.50
30724;BME280;17473;52.286;20.930;2023-12-29T09:38:51;99638.88;;;12.13;63.69
30724;BME280;17473;52.286;20.930;2023-12-29T09:41:20;99630.19;;;11.69;64.12
30724;BME280;17473;52.286;20.930;2023-12-29T09:43:50;99641.34;;;12.00;64.04
30724;BME280;17473;52.286;20.930;2023-12-29T09:46:19;99631.66;;;11.53;64.96
30724;BME280;17473;52.286;20.930;2023-12-29T09:48:52;99629.59;;;11.35;65.90
30724;BME280;17473;52.286;20.930;2023-12-29T09:51:23;99633.50;;;11.08;67.66
30724;BME280;17473;52.286;20.930;2023-12-29T09:53:51;99626.50;;;11.12;67.61
30724;BME280;17473;52.286;20.930;2023-12-29T09:56:19;99619.56;;;11.66;65.82
30724;BME280;17473;52.286;20.930;2023-12-29T09:58:48;99630.41;;;11.82;64.94
30724;BME280;17473;52.286;20.930;2023-12-29T10:01:18;99626.59;;;11.64;65.86
30724;BME280;17473;52.286;20.930;2023-12-29T10:03:47;99626.78;;;11.77;65.45
30724;BME280;17473;52.286;20.930;2023-12-29T10:06:22;99617.94;;;11.25;67.16
30724;BME280;17473;52.286;20.930;2023-12-29T10:08:50;99621.59;;;10.86;68.80
30724;BME280;17473;52.286;20.930;2023-12-29T10:11:21;99627.81;;;10.47;70.80
30724;BME280;17473;52.286;20.930;2023-12-29T10:13:50;99635.84;;;10.93;69.96
30724;BME280;17473;52.286;20.930;2023-12-29T10:16:44;99631.78;;;10.68;70.54
30724;BME280;17473;52.286;20.930;2023-12-29T10:19:40;99629.41;;;10.40;71.59
30724;BME280;17473;52.286;20.930;2023-12-29T10:22:22;99625.16;;;10.45;72.30
30724;BME280;17473;52.286;20.930;2023-12-29T10:24:53;99630.09;;;10.71;71.34
30724;BME280;17473;52.286;20.930;2023-12-29T10:27:20;99614.53;;;10.85;71.06
30724;BME280;17473;52.286;20.930;2023-12-29T10:29:47;99618.44;;;11.50;68.45
30724;BME280;17473;52.286;20.930;2023-12-29T10:32:14;99609.72;;;11.08;69.84
30724;BME280;17473;52.286;20.930;2023-12-29T10:34:42;99608.19;;;11.21;68.95
30724;BME280;17473;52.286;20.930;2023-12-29T10:37:09;99604.06;;;10.90;70.21
30724;BME280;17473;52.286;20.930;2023-12-29T10:39:58;99591.03;;;10.99;70.08
30724;BME280;17473;52.286;20.930;2023-12-29T10:42:25;99608.44;;;10.89;70.95
30724;BME280;17473;52.286;20.930;2023-12-29T10:45:07;99612.25;;;11.02;70.38
30724;BME280;17473;52.286;20.930;2023-12-29T10:47:34;99615.34;;;11.27;69.77
30724;BME280;17473;52.286;20.930;2023-12-29T10:50:03;99618.38;;;11.01;70.78
30724;BME280;17473;52.286;20.930;2023-12-29T10:52:32;99611.03;;;10.85;71.26
30724;BME280;17473;52.286;20.930;2023-12-29T10:55:07;99609.81;;;11.13;70.26
30724;BME280;17473;52.286;20.930;2023-12-29T10:57:37;99615.06;;;11.11;70.28
30724;BME280;17473;52.286;20.930;2023-12-29T11:00:05;99616.22;;;10.80;71.90
30724;BME280;17473;52.286;20.930;2023-12-29T11:02:35;99604.94;;;10.89;71.76
30724;BME280;17473;52.286;20.930;2023-12-29T11:05:07;99615.41;;;10.84;72.04
30724;BME280;17473;52.286;20.930;2023-12-29T11:07:40;99611.31;;;10.19;73.93
30724;BME280;17473;52.286;20.930;2023-12-29T11:10:09;99611.25;;;10.16;75.10
30724;BME280;17473;52.286;20.930;2023-12-29T11:12:37;99598.81;;;10.10;75.97
30724;BME280;17473;52.286;20.930;2023-12-29T11:15:06;99600.72;;;10.16;74.95
30724;BME280;17473;52.286;20.930;2023-12-29T11:17:35;99609.00;;;10.33;74.92
30724;BME280;17473;52.286;20.930;2023-12-29T11:20:04;99592.59;;;10.08;75.83
30724;BME280;17473;52.286;20.930;2023-12-29T11:22:32;99593.69;;;10.18;75.87
30724;BME280;17473;52.286;20.930;2023-12-29T11:25:00;99581.13;;;10.06;76.37
30724;BME280;17473;52.286;20.930;2023-12-29T11:27:30;99577.59;;;10.06;76.33
30724;BME280;17473;52.286;20.930;2023-12-29T11:29:59;99576.97;;;9.78;77.53
30724;BME280;17473;52.286;20.930;2023-12-29T11:35:18;99554.53;;;9.59;78.41
30724;BME280;17473;52.286;20.930;2023-12-29T11:43:29;99555.06;;;9.82;77.90
30724;BME280;17473;52.286;20.930;2023-12-29T11:45:56;99556.34;;;9.61;79.38
30724;BME280;17473;52.286;20.930;2023-12-29T11:48:58;99540.78;;;9.72;78.92
30724;BME280;17473;52.286;20.930;2023-12-29T11:54:04;99536.66;;;9.83;78.52
30724;BME280;17473;52.286;20.930;2023-12-29T11:59:25;99536.06;;;9.97;78.17
30724;BME280;17473;52.286;20.930;2023-12-29T12:01:59;99529.50;;;10.17;77.87
30724;BME280;17473;52.286;20.930;2023-12-29T12:04:43;99527.75;;;9.78;79.10
30724;BME280;17473;52.286;20.930;2023-12-29T12:12:57;99535.22;;;9.98;78.75
30724;BME280;17473;52.286;20.930;2023-12-29T12:18:10;99551.00;;;9.58;80.97
30724;BME280;17473;52.286;20.930;2023-12-29T12:20:38;99561.75;;;9.67;81.39
30724;BME280;17473;52.286;20.930;2023-12-29T12:23:18;99548.34;;;9.58;81.74
30724;BME280;17473;52.286;20.930;2023-12-29T12:25:47;99556.25;;;9.57;82.35
30724;BME280;17473;52.286;20.930;2023-12-29T12:28:16;99544.88;;;9.59;82.25
30724;BME280;17473;52.286;20.930;2023-12-29T12:30:44;99537.16;;;9.67;82.19
30724;BME280;17473;52.286;20.930;2023-12-29T12:33:13;99534.56;;;9.68;82.00
30724;BME280;17473;52.286;20.930;2023-12-29T12:35:41;99540.19;;;9.47;82.49
30724;BME280;17473;52.286;20.930;2023-12-29T12:38:16;99545.00;;;9.64;82.07
30724;BME280;17473;52.286;20.930;2023-12-29T12:40:51;99540.66;;;9.66;81.80
30724;BME280;17473;52.286;20.930;2023-12-29T12:43:18;99540.75;;;9.70;81.96
30724;BME280;17473;52.286;20.930;2023-12-29T12:45:53;99539.81;;;9.67;81.31
30724;BME280;17473;52.286;20.930;2023-12-29T12:48:45;99533.22;;;9.87;80.78
30724;BME280;17473;52.286;20.930;2023-12-29T12:51:14;99537.31;;;9.75;80.89
30724;BME280;17473;52.286;20.930;2023-12-29T12:53:42;99528.75;;;9.83;80.05
30724;BME280;17473;52.286;20.930;2023-12-29T12:56:11;99534.88;;;9.82;79.69
30724;BME280;17473;52.286;20.930;2023-12-29T12:58:39;99533.31;;;9.91;79.54
30724;BME280;17473;52.286;20.930;2023-12-29T13:01:06;99532.28;;;9.84;79.12
30724;BME280;17473;52.286;20.930;2023-12-29T13:03:37;99537.50;;;9.82;78.81
30724;BME280;17473;52.286;20.930;2023-12-29T13:06:06;99528.81;;;9.86;78.60
30724;BME280;17473;52.286;20.930;2023-12-29T13:08:34;99537.75;;;9.93;78.32
30724;BME280;17473;52.286;20.930;2023-12-29T13:11:09;99526.47;;;9.99;77.47
30724;BME280;17473;52.286;20.930;2023-12-29T13:13:41;99530.47;;;9.81;77.98
30724;BME280;17473;52.286;20.930;2023-12-29T13:16:10;99532.31;;;9.85;78.04
30724;BME280;17473;52.286;20.930;2023-12-29T13:18:37;99530.66;;;9.89;78.09
30724;BME280;17473;52.286;20.930;2023-12-29T13:21:06;99536.50;;;9.77;78.13
30724;BME280;17473;52.286;20.930;2023-12-29T13:23:34;99542.72;;;9.79;78.12
30724;BME280;17473;52.286;20.930;2023-12-29T13:26:09;99533.00;;;9.78;78.81
30724;BME280;17473;52.286;20.930;2023-12-29T13:28:38;99532.88;;;9.72;78.40
30724;BME280;17473;52.286;20.930;2023-12-29T13:31:11;99542.34;;;9.64;79.32
30724;BME280;17473;52.286;20.930;2023-12-29T13:34:04;99536.34;;;9.69;78.84